KOCH/OCH METAR and TAF weather

Enter ICAO airport designator
Station Type Date Time Source
KOCH METAR 2018/12/15 03:56 UTC NOAA

KOCH 150356Z AUTO 31013KT 8SM -RA 08/07 A3002 RMK AO2 RAB52 SLP170 P0000 T00830067 $


Station Type Date Time Source
KOCH Decoded METAR 2018/12/15 03:56 UTC NOAA

Nacogdoches, A L Mangham Jr. Regional Airport, TX, United States (KOCH) 31-35N 094-43W
Dec 14, 2018 - 10:56 PM EST / 2018.12.15 0356 UTC
Wind: from the NW (310 degrees) at 15 MPH (13 KT):0
Visibility: 8 mile(s):0
Weather: light rain
Precipitation last hour: A trace
Temperature: 46.9 F (8.3 C)
Dew Point: 44.1 F (6.7 C)
Relative Humidity: 89%
Pressure (altimeter): 30.02 in. Hg (1016 hPa)
ob: KOCH 150356Z AUTO 31013KT 8SM -RA 08/07 A3002 RMK AO2 RAB52 SLP170 P0000 T00830067
cycle: 4

Station Type Date Time Source
KOCH TAF UTC NOAA

Error!


Example: see airport list